Time;durP1;ratioP1;P1;durP2;ratioP2;P2;SDS_P1;SDS_P2;PMS_P1;PMS_P2;Temp;Humidity;BMP_temperature;BMP_pressure;BME280_temperature;BME280_humidity;BME280_pressure;Samples;Min_cycle;Max_cycle;Signal;HPM_P1;HPM_P2
2021/07/01 00:02:04;;;;;;;;;15.50;14.25;;;;;16.35;69.58;100682.91;5039938;28;45507;-91
2021/07/01 00:04:30;;;;;;;;;21.50;18.00;;;;;16.16;69.26;100660.19;5073592;28;45198;-92
2021/07/01 00:06:55;;;;;;;;;15.00;14.75;;;;;16.13;69.47;100667.59;5039548;28;45146;-92
2021/07/01 00:09:26;;;;;;;;;14.75;14.75;;;;;16.26;69.58;100689.84;5039533;28;47699;-91
2021/07/01 00:11:55;;;;;;;;;17.50;14.25;;;;;16.14;69.71;100669.31;5039779;28;45206;-92
2021/07/01 00:14:21;;;;;;;;;16.00;15.50;;;;;16.05;69.51;100657.47;5039826;28;45193;-91
2021/07/01 00:16:49;;;;;;;;;13.75;11.00;;;;;16.01;69.67;100653.31;5057565;28;45243;-91
2021/07/01 00:19:15;;;;;;;;;18.50;14.25;;;;;16.13;69.34;100672.97;5039275;28;48527;-91
2021/07/01 00:21:41;;;;;;;;;15.75;12.75;;;;;16.18;69.48;100685.03;5039584;28;45776;-93
2021/07/01 00:24:06;;;;;;;;;18.50;14.50;;;;;16.04;69.39;100663.78;5022942;28;45248;-93
2021/07/01 00:26:32;;;;;;;;;12.00;10.50;;;;;16.09;69.60;100679.53;5039697;28;45156;-91
2021/07/01 00:28:57;;;;;;;;;14.75;14.75;;;;;16.10;69.62;100674.03;5039438;28;47528;-95
2021/07/01 00:31:23;;;;;;;;;13.25;12.00;;;;;15.88;69.67;100643.50;5039496;28;45222;-92
2021/07/01 00:33:49;;;;;;;;;13.50;13.50;;;;;16.07;69.91;100673.44;5039530;28;45235;-92
2021/07/01 00:36:14;;;;;;;;;12.75;11.50;;;;;15.88;69.40;100646.19;5039235;28;45195;-92
2021/07/01 00:38:39;;;;;;;;;13.75;11.00;;;;;16.09;69.91;100679.53;5038779;28;46878;-92
2021/07/01 00:41:05;;;;;;;;;16.50;12.50;;;;;15.94;69.79;100652.91;5056823;28;45319;-91
2021/07/01 00:43:30;;;;;;;;;13.75;13.75;;;;;16.04;69.64;100675.38;5039171;28;45089;-93
2021/07/01 00:45:55;;;;;;;;;15.25;14.00;;;;;15.84;69.59;100635.84;5039062;28;45351;-91
2021/07/01 00:48:21;;;;;;;;;14.75;12.75;;;;;16.00;69.51;100663.19;5057159;28;45195;-92
2021/07/01 00:50:46;;;;;;;;;22.25;16.25;;;;;15.75;69.75;100623.94;5038948;28;45220;-92
2021/07/01 00:53:12;;;;;;;;;19.75;16.25;;;;;16.13;69.84;100683.69;5057549;28;45303;-93
2021/07/01 00:55:38;;;;;;;;;13.00;13.00;;;;;16.01;70.08;100666.72;5057186;28;45211;-92
2021/07/01 00:58:05;;;;;;;;;17.25;12.75;;;;;15.98;69.84;100658.91;5039076;28;48135;-93
2021/07/01 01:02:57;;;;;;;;;14.25;13.00;;;;;16.06;69.66;100683.28;5057584;28;45346;-92
2021/07/01 01:05:23;;;;;;;;;14.50;14.00;;;;;15.97;69.67;100666.09;5060965;28;45343;-92
2021/07/01 01:07:50;;;;;;;;;14.75;14.25;;;;;16.03;69.79;100683.53;5042589;28;47416;-92
2021/07/01 01:10:16;;;;;;;;;14.75;14.25;;;;;16.00;69.84;100675.72;5060119;28;45548;-93
2021/07/01 01:12:42;;;;;;;;;17.00;15.00;;;;;15.81;70.17;100658.34;5042479;28;45114;-92
2021/07/01 01:15:08;;;;;;;;;12.75;12.75;;;;;15.87;70.17;100663.25;5042280;28;45444;-91
2021/07/01 01:17:35;;;;;;;;;16.00;15.00;;;;;15.96;69.96;100677.81;5042340;28;47847;-92
2021/07/01 01:20:00;;;;;;;;;17.25;15.25;;;;;15.73;70.43;100633.06;5042139;28;45586;-92
2021/07/01 01:22:26;;;;;;;;;18.00;12.25;;;;;15.91;70.20;100666.56;5135242;22;45335;-92
2021/07/01 01:24:51;;;;;;;;;15.00;15.00;;;;;15.71;69.59;100644.75;4999161;28;45333;-91
2021/07/01 01:27:18;;;;;;;;;14.75;13.75;;;;;15.57;70.17;100628.88;4982903;28;47954;-92
2021/07/01 01:29:44;;;;;;;;;13.50;13.50;;;;;15.79;70.19;100668.34;4999498;28;45662;-91
2021/07/01 01:32:09;;;;;;;;;14.50;13.50;;;;;15.79;70.39;100671.03;4999110;28;45208;-92
2021/07/01 01:34:35;;;;;;;;;12.75;11.75;;;;;15.80;70.52;100669.19;4999199;28;45404;-92
2021/07/01 01:37:00;;;;;;;;;11.75;11.25;;;;;15.75;70.79;100668.66;4966627;28;47855;-92
2021/07/01 01:39:26;;;;;;;;;17.25;15.00;;;;;15.71;70.69;100671.56;4982224;28;45162;-91
2021/07/01 01:41:51;;;;;;;;;16.25;15.50;;;;;15.80;70.45;100683.44;5000556;28;45116;-93
2021/07/01 01:44:16;;;;;;;;;13.00;12.25;;;;;15.67;70.23;100671.91;4999345;28;45358;-94
2021/07/01 01:46:42;;;;;;;;;15.25;13.25;;;;;15.75;70.70;100682.94;4998991;28;47303;-92
2021/07/01 01:49:08;;;;;;;;;15.00;13.00;;;;;15.48;69.94;100643.81;4982412;28;46124;-91
2021/07/01 01:51:35;;;;;;;;;12.75;12.75;;;;;15.39;70.71;100631.13;4998878;28;45250;-92
2021/07/01 01:54:02;;;;;;;;;15.75;14.25;;;;;15.58;70.68;100665.44;5000050;28;45289;-93
2021/07/01 01:56:36;;;;;;;;;12.25;11.75;;;;;15.53;70.80;100656.88;5000222;28;46144;-92
2021/07/01 01:59:06;;;;;;;;;16.25;14.00;;;;;15.48;70.84;100669.78;4982237;28;45852;-91
2021/07/01 02:01:31;;;;;;;;;14.00;12.50;;;;;15.49;70.90;100666.09;4979059;28;45149;-92
2021/07/01 02:03:57;;;;;;;;;14.50;12.00;;;;;15.53;70.36;100663.09;4998551;28;45289;-92
2021/07/01 02:06:23;;;;;;;;;14.75;12.75;;;;;15.53;70.42;100670.25;4998762;28;47969;-92
2021/07/01 02:08:48;;;;;;;;;16.00;13.25;;;;;15.48;70.54;100661.72;4999982;28;45153;-93
2021/07/01 02:11:14;;;;;;;;;14.50;14.50;;;;;15.36;70.33;100639.34;4998502;28;45173;-92
2021/07/01 02:13:40;;;;;;;;;16.00;14.50;;;;;15.56;70.62;100664.66;4998310;28;45208;-92
2021/07/01 02:16:05;;;;;;;;;20.75;15.25;;;;;15.49;70.23;100658.94;4998590;28;48412;-91
2021/07/01 02:18:31;;;;;;;;;17.75;16.75;;;;;15.34;70.48;100636.78;4998387;28;45691;-92
2021/07/01 02:20:56;;;;;;;;;12.75;11.00;;;;;15.27;70.27;100629.34;4982564;28;45256;-92
2021/07/01 02:23:21;;;;;;;;;18.25;15.00;;;;;15.30;70.72;100631.78;4981818;28;45348;-93
2021/07/01 02:25:47;;;;;;;;;16.25;12.00;;;;;15.46;70.66;100658.28;4997778;28;47461;-91
2021/07/01 02:28:13;;;;;;;;;16.00;13.75;;;;;15.46;70.62;100669.88;4981760;28;45860;-92
2021/07/01 02:30:38;;;;;;;;;16.00;14.75;;;;;15.45;70.92;100662.81;4998337;28;45266;-93
2021/07/01 02:33:03;;;;;;;;;14.25;13.25;;;;;15.31;70.38;100642.38;4998422;28;45153;-92
2021/07/01 02:35:29;;;;;;;;;15.00;13.50;;;;;15.34;70.52;100654.72;4997916;28;46929;-92
2021/07/01 02:37:55;;;;;;;;;15.50;13.50;;;;;15.30;70.72;100640.66;4999606;28;45102;-91
2021/07/01 02:40:20;;;;;;;;;13.25;12.50;;;;;15.40;70.82;100659.59;4999574;28;45204;-92
2021/07/01 02:42:45;;;;;;;;;14.75;12.75;;;;;15.23;70.43;100630.53;4998151;28;45113;-94
2021/07/01 02:45:13;;;;;;;;;14.75;13.50;;;;;15.12;70.62;100617.91;4999190;28;46359;-94
2021/07/01 02:47:39;;;;;;;;;13.50;12.50;;;;;15.11;70.92;100618.91;4981435;28;45418;-92
2021/07/01 02:50:06;;;;;;;;;15.00;14.75;;;;;15.08;70.71;100617.31;4997710;28;45288;-92
2021/07/01 02:52:32;;;;;;;;;18.00;16.25;;;;;15.12;70.81;100628.63;4999151;28;45182;-91
2021/07/01 02:54:57;;;;;;;;;15.50;15.50;;;;;15.21;70.79;100645.88;4989614;28;47197;-91
2021/07/01 02:57:23;;;;;;;;;16.00;13.75;;;;;15.10;70.61;100631.41;4981572;28;45265;-92
2021/07/01 02:59:48;;;;;;;;;16.00;12.75;;;;;15.04;71.10;100631.88;4997642;28;45249;-92
2021/07/01 03:02:13;;;;;;;;;13.00;13.00;;;;;15.19;70.99;100657.53;4997623;28;45082;-92
2021/07/01 03:04:40;;;;;;;;;19.00;13.50;;;;;15.20;71.13;100645.00;4997263;28;46881;-91
2021/07/01 03:07:06;;;;;;;;;16.75;15.75;;;;;15.11;71.00;100641.19;4997369;28;46209;-92
2021/07/01 03:09:31;;;;;;;;;13.75;12.75;;;;;15.00;71.12;100619.69;4997422;28;45149;-91
2021/07/01 03:11:57;;;;;;;;;19.50;15.25;;;;;14.92;71.06;100614.91;4989312;28;45301;-92
2021/07/01 03:14:22;;;;;;;;;14.75;13.25;;;;;15.02;71.13;100633.78;4997390;28;48113;-92
2021/07/01 03:16:47;;;;;;;;;21.00;18.50;;;;;15.04;71.39;100647.94;4997416;28;45116;-91
2021/07/01 03:19:13;;;;;;;;;15.00;14.00;;;;;14.79;71.26;100611.38;4997440;28;45189;-94
2021/07/01 03:21:38;;;;;;;;;22.00;18.50;;;;;14.79;71.60;100622.09;4998532;28;45271;-92
2021/07/01 03:24:05;;;;;;;;;18.50;17.50;;;;;14.59;71.50;100599.41;4997235;28;48368;-93
2021/07/01 03:26:30;;;;;;;;;16.25;14.00;;;;;14.81;71.53;100637.06;4996140;28;45652;-91
2021/07/01 03:28:56;;;;;;;;;17.75;17.00;;;;;14.86;71.51;100654.63;4997289;28;45312;-92
2021/07/01 03:31:21;;;;;;;;;15.25;15.25;;;;;14.74;71.41;100637.63;4998463;28;45360;-92
2021/07/01 03:33:47;;;;;;;;;16.50;14.50;;;;;14.61;71.75;100618.91;4997935;28;46394;-92
2021/07/01 03:36:12;;;;;;;;;16.00;15.25;;;;;14.71;71.62;100633.34;4998276;28;45271;-92
2021/07/01 03:38:38;;;;;;;;;18.75;15.75;;;;;14.71;71.49;100635.16;4996981;28;45243;-92
2021/07/01 03:41:05;;;;;;;;;17.00;15.50;;;;;14.56;71.21;100607.66;4980541;28;45442;-92
2021/07/01 03:43:32;;;;;;;;;15.75;14.00;;;;;14.52;71.16;100603.47;4997030;28;47202;-93
2021/07/01 03:45:57;;;;;;;;;16.25;15.25;;;;;14.63;71.61;100630.38;4996725;28;45203;-92
2021/07/01 03:48:23;;;;;;;;;19.00;16.50;;;;;14.66;71.38;100638.16;4980487;28;45174;-92
2021/07/01 03:50:48;;;;;;;;;13.00;12.50;;;;;14.62;71.24;100634.88;4998305;28;45173;-92
2021/07/01 03:53:14;;;;;;;;;17.50;15.75;;;;;14.56;71.34;100635.25;4996468;28;48044;-91
2021/07/01 03:55:39;;;;;;;;;17.50;16.25;;;;;14.64;71.94;100645.47;4997986;28;45552;-92
2021/07/01 03:58:05;;;;;;;;;22.25;17.75;;;;;14.61;72.04;100640.31;4996578;28;45275;-93
2021/07/01 04:00:31;;;;;;;;;15.25;14.75;;;;;14.52;72.26;100639.09;4996705;28;45296;-92
2021/07/01 04:02:58;;;;;;;;;18.00;16.25;;;;;14.33;72.51;100623.50;4979695;28;47560;-91
2021/07/01 04:05:24;;;;;;;;;16.25;15.75;;;;;14.08;72.52;100574.44;4997900;28;45251;-93
2021/07/01 04:07:49;;;;;;;;;27.00;18.50;;;;;14.31;72.78;100626.28;4980856;28;45724;-92
2021/07/01 04:10:17;;;;;;;;;21.50;19.00;;;;;14.31;72.72;100623.63;5000723;28;45272;-93
2021/07/01 04:12:43;;;;;;;;;20.00;18.00;;;;;14.44;72.75;100644.16;4979654;28;47035;-92
2021/07/01 04:15:08;;;;;;;;;19.00;16.75;;;;;14.29;72.92;100622.88;4997590;28;45212;-92
2021/07/01 04:17:35;;;;;;;;;18.75;15.25;;;;;14.38;72.96;100637.44;4996425;28;45221;-92
2021/07/01 04:20:00;;;;;;;;;19.00;15.00;;;;;14.23;72.71;100625.97;4996407;28;45380;-93
2021/07/01 04:22:25;;;;;;;;;20.50;18.50;;;;;14.29;72.88;100636.25;4998786;28;46898;-93
2021/07/01 04:24:52;;;;;;;;;17.25;16.25;;;;;14.31;72.40;100634.31;4997131;28;45349;-93
2021/07/01 04:27:17;;;;;;;;;16.75;15.50;;;;;14.34;72.81;100635.94;4980553;28;45237;-90
2021/07/01 04:29:43;;;;;;;;;18.75;15.75;;;;;14.35;72.61;100637.66;4997636;28;45211;-93
2021/07/01 04:32:08;;;;;;;;;19.50;16.00;;;;;14.20;72.37;100611.97;4997548;28;45211;-92
2021/07/01 04:34:34;;;;;;;;;20.75;16.00;;;;;14.25;72.55;100640.09;4980084;28;45225;-93
2021/07/01 04:37:01;;;;;;;;;15.25;15.25;;;;;14.31;72.48;100650.38;4996083;28;45670;-92
2021/07/01 04:39:26;;;;;;;;;14.00;14.00;;;;;14.26;71.95;100646.28;4996083;28;45224;-94
2021/07/01 04:41:51;;;;;;;;;14.50;13.50;;;;;14.40;72.59;100670.25;4979956;28;47185;-91
2021/07/01 04:44:17;;;;;;;;;12.25;12.00;;;;;14.35;72.44;100666.19;4996095;28;45227;-92
2021/07/01 04:46:42;;;;;;;;;16.00;13.75;;;;;14.41;72.31;100673.78;4996523;28;45186;-94
2021/07/01 04:49:09;;;;;;;;;16.75;14.25;;;;;14.35;72.60;100666.19;4978800;28;45265;-91
2021/07/01 04:51:35;;;;;;;;;15.00;12.50;;;;;14.27;72.44;100651.53;4996234;28;47224;-94
2021/07/01 04:54:00;;;;;;;;;18.00;14.50;;;;;14.21;72.66;100635.94;4996090;28;45260;-91
2021/07/01 04:56:25;;;;;;;;;17.50;16.00;;;;;14.42;72.70;100662.13;4998172;28;45320;-83
2021/07/01 04:58:51;;;;;;;;;17.00;14.75;;;;;14.42;72.54;100652.31;4997346;28;45240;-90
2021/07/01 05:01:16;;;;;;;;;17.75;17.25;;;;;14.57;72.65;100673.59;4997355;28;45242;-90
2021/07/01 05:03:42;;;;;;;;;19.50;16.75;;;;;14.54;73.03;100655.94;4995958;28;45354;-87
2021/07/01 05:06:07;;;;;;;;;17.75;16.00;;;;;14.67;72.49;100675.53;4996533;28;45169;-87
2021/07/01 05:08:32;;;;;;;;;16.00;14.25;;;;;14.72;72.33;100677.03;4997226;28;45244;-91
2021/07/01 05:10:58;;;;;;;;;19.25;18.00;;;;;14.75;72.64;100684.81;4996543;28;45233;-93
2021/07/01 05:13:23;;;;;;;;;21.00;17.00;;;;;14.76;72.60;100687.41;4979273;28;45343;-93
2021/07/01 05:15:49;;;;;;;;;28.25;20.75;;;;;14.80;72.52;100683.53;4997108;28;45299;-91
2021/07/01 05:18:15;;;;;;;;;21.00;19.75;;;;;14.80;72.51;100686.22;4997110;28;45356;-87
2021/07/01 05:20:43;;;;;;;;;25.75;21.00;;;;;14.81;72.26;100679.06;4995792;28;45268;-87
2021/07/01 05:23:08;;;;;;;;;20.25;20.00;;;;;14.72;72.16;100664.50;4995239;28;45232;-87
2021/07/01 05:25:34;;;;;;;;;26.50;24.00;;;;;14.81;72.10;100673.72;4996013;28;45220;-88
2021/07/01 05:27:59;;;;;;;;;20.75;19.25;;;;;14.94;72.24;100687.06;4995775;28;45154;-88
2021/07/01 05:30:24;;;;;;;;;26.00;23.25;;;;;14.99;71.92;100691.13;4995551;28;45328;-87
2021/07/01 05:32:50;;;;;;;;;22.25;20.25;;;;;14.94;72.19;100666.50;4995508;28;45327;-88
2021/07/01 05:35:15;;;;;;;;;27.00;21.25;;;;;15.08;71.92;100686.94;4977882;28;45236;-88
2021/07/01 05:37:40;;;;;;;;;23.50;21.75;;;;;15.10;71.29;100671.59;4995832;28;45188;-88
2021/07/01 05:40:07;;;;;;;;;21.50;20.50;;;;;15.27;71.43;100696.31;4995519;28;45688;-88
2021/07/01 05:42:32;;;;;;;;;23.00;20.50;;;;;15.33;71.43;100694.03;4995423;28;45535;-88
2021/07/01 05:44:58;;;;;;;;;25.50;21.75;;;;;15.35;71.50;100692.09;4995524;28;45306;-88
2021/07/01 05:47:23;;;;;;;;;19.50;18.25;;;;;15.45;70.59;100688.72;4995706;28;45343;-88
2021/07/01 05:49:49;;;;;;;;;20.25;18.25;;;;;15.40;70.76;100682.88;4995887;28;48334;-88
2021/07/01 05:52:21;;;;;;;;;18.25;17.25;;;;;15.38;70.59;100682.09;4997378;28;45306;-87
2021/07/01 05:54:56;;;;;;;;;20.75;19.00;;;;;15.51;70.24;100696.34;4998502;28;45288;-86
2021/07/01 05:57:23;;;;;;;;;22.00;19.25;;;;;15.56;70.51;100691.47;4981848;28;45291;-87
2021/07/01 05:59:48;;;;;;;;;22.75;19.25;;;;;15.45;70.09;100661.94;4998660;28;45421;-87
2021/07/01 06:02:13;;;;;;;;;19.50;16.75;;;;;15.66;69.74;100692.53;4998799;28;45187;-92
2021/07/01 06:04:39;;;;;;;;;19.00;17.67;;;;;15.66;70.04;100680.91;4982080;28;45252;-91
2021/07/01 06:07:05;;;;;;;;;21.00;17.50;;;;;15.75;69.52;100688.28;4982641;28;45248;-91
2021/07/01 06:09:31;;;;;;;;;31.25;26.50;;;;;15.84;69.86;100692.97;4981726;28;46338;-91
2021/07/01 06:11:59;;;;;;;;;20.75;18.25;;;;;15.94;69.23;100693.13;4999785;28;45116;-87
2021/07/01 06:14:26;;;;;;;;;18.75;17.50;;;;;15.96;69.37;100687.66;5000065;28;45420;-92
2021/07/01 06:16:53;;;;;;;;;19.75;17.50;;;;;16.10;69.12;100689.28;5000271;28;45153;-94
2021/07/01 06:19:19;;;;;;;;;29.00;23.50;;;;;16.12;69.43;100677.47;5000310;28;45272;-89
2021/07/01 06:21:46;;;;;;;;;22.50;20.50;;;;;16.27;69.23;100683.47;4999275;28;45224;-91
2021/07/01 06:24:13;;;;;;;;;22.00;21.50;;;;;16.35;68.69;100664.13;4999878;28;45062;-89
2021/07/01 06:26:39;;;;;;;;;24.75;22.25;;;;;16.61;68.02;100694.28;4998237;28;45231;-90
2021/07/01 06:29:04;;;;;;;;;25.50;25.25;;;;;16.73;67.94;100697.81;4999273;28;45555;-91
2021/07/01 06:31:30;;;;;;;;;26.25;22.50;;;;;16.76;68.03;100688.66;4999041;28;45243;-89
2021/07/01 06:33:55;;;;;;;;;22.75;21.00;;;;;16.74;67.17;100673.56;4999226;28;45178;-91
2021/07/01 06:36:24;;;;;;;;;23.25;21.50;;;;;17.01;67.34;100709.09;4999292;28;45288;-90
2021/07/01 06:38:58;;;;;;;;;20.50;19.00;;;;;17.06;67.02;100699.69;4999229;28;45552;-89
2021/07/01 06:41:26;;;;;;;;;22.25;21.75;;;;;17.15;66.55;100710.66;4997494;28;45156;-90
2021/07/01 06:43:55;;;;;;;;;25.00;20.25;;;;;17.21;66.59;100719.06;4998780;28;45292;-91
2021/07/01 06:46:21;;;;;;;;;18.50;17.25;;;;;17.29;66.44;100707.72;4999148;28;45274;-89
2021/07/01 06:48:48;;;;;;;;;22.50;20.00;;;;;17.38;65.61;100708.78;4998336;28;45754;-89
2021/07/01 06:51:15;;;;;;;;;25.75;22.25;;;;;17.33;66.14;100693.06;4980323;28;45631;-90
2021/07/01 06:53:42;;;;;;;;;23.25;20.00;;;;;17.42;65.86;100699.50;4998445;28;45227;-90
2021/07/01 06:56:09;;;;;;;;;22.00;18.50;;;;;17.52;65.46;100705.81;4998074;28;45416;-89
2021/07/01 06:58:40;;;;;;;;;21.50;19.25;;;;;17.58;65.30;100710.69;4996544;28;47389;-90
2021/07/01 07:01:05;;;;;;;;;20.25;15.75;;;;;17.57;65.23;100705.44;4997374;28;45615;-87
2021/07/01 07:03:31;;;;;;;;;17.25;15.00;;;;;17.57;65.74;100700.06;4980350;28;45315;-90
2021/07/01 07:05:59;;;;;;;;;15.00;14.00;;;;;17.74;65.16;100723.75;4996673;28;45378;-88
2021/07/01 07:08:25;;;;;;;;;18.50;14.50;;;;;17.86;65.02;100721.00;4997497;28;46431;-92
2021/07/01 07:10:50;;;;;;;;;18.00;15.25;;;;;17.94;64.57;100710.47;4997797;28;45304;-91
2021/07/01 07:13:16;;;;;;;;;19.00;16.50;;;;;18.14;64.49;100714.16;4979910;28;45432;-90
2021/07/01 07:15:44;;;;;;;;;16.25;16.25;;;;;18.15;63.43;100696.22;4980385;28;45340;-90
2021/07/01 07:18:18;;;;;;;;;15.75;12.75;;;;;18.34;63.67;100708.94;4997379;28;46538;-90
2021/07/01 07:20:46;;;;;;;;;14.25;14.25;;;;;18.50;63.82;100725.47;4997818;28;45283;-89
2021/07/01 07:23:19;;;;;;;;;14.00;13.25;;;;;18.67;62.66;100721.34;4997665;28;45315;-91
2021/07/01 07:25:46;;;;;;;;;15.25;13.75;;;;;18.90;62.67;100719.34;4980004;28;45154;-90
2021/07/01 07:28:17;;;;;;;;;13.75;12.25;;;;;19.02;61.76;100701.22;4997044;28;46340;-89
2021/07/01 07:30:42;;;;;;;;;15.00;11.75;;;;;19.33;61.29;100724.63;4997573;28;45273;-88
2021/07/01 07:33:10;;;;;;;;;14.00;12.25;;;;;19.49;60.91;100712.28;4997834;28;45170;-89
2021/07/01 07:35:36;;;;;;;;;17.50;14.00;;;;;19.77;59.67;100717.03;4997880;28;45162;-90
2021/07/01 07:38:08;;;;;;;;;17.00;15.00;;;;;20.00;59.77;100721.16;4997590;28;45204;-90
2021/07/01 07:40:33;;;;;;;;;14.25;14.25;;;;;20.12;59.61;100712.91;4997252;28;45586;-89
2021/07/01 07:43:03;;;;;;;;;15.50;12.25;;;;;20.22;59.89;100705.66;4997542;28;45179;-90
2021/07/01 07:45:29;;;;;;;;;16.75;12.50;;;;;20.50;58.70;100725.50;4997343;28;45241;-90
2021/07/01 07:47:54;;;;;;;;;14.50;11.00;;;;;20.70;58.48;100714.69;4996766;28;45238;-89
2021/07/01 07:50:20;;;;;;;;;19.75;17.50;;;;;20.72;57.52;100692.94;4997304;28;45264;-89
2021/07/01 07:52:48;;;;;;;;;16.75;12.50;;;;;20.90;58.04;100714.63;4997531;28;45276;-89
2021/07/01 07:55:16;;;;;;;;;18.25;16.50;;;;;20.90;58.09;100725.44;4995844;28;45437;-89
2021/07/01 07:57:44;;;;;;;;;15.25;11.25;;;;;20.86;57.90;100730.28;4995740;28;47312;-91
2021/07/01 08:00:10;;;;;;;;;15.25;14.25;;;;;20.76;57.13;100727.59;4997139;28;45169;-90
2021/07/01 08:02:47;;;;;;;;;15.75;15.25;;;;;20.63;57.08;100729.75;4997335;28;45299;-92
2021/07/01 08:05:23;;;;;;;;;16.50;15.25;;;;;20.50;57.90;100733.59;4997504;28;45250;-90
2021/07/01 08:07:50;;;;;;;;;18.00;14.25;;;;;20.38;57.72;100724.00;4997041;28;45316;-90
2021/07/01 08:10:18;;;;;;;;;16.25;15.75;;;;;20.36;58.34;100734.06;4996761;28;45173;-89
2021/07/01 08:12:48;;;;;;;;;21.50;17.50;;;;;20.39;58.03;100720.28;4996444;28;45206;-89
2021/07/01 08:15:15;;;;;;;;;19.50;17.25;;;;;20.38;58.04;100705.09;4997252;28;45248;-89
2021/07/01 08:17:44;;;;;;;;;16.25;15.50;;;;;20.43;57.67;100691.13;4996845;28;45226;-88
2021/07/01 08:20:13;;;;;;;;;21.25;17.75;;;;;20.79;57.39;100719.22;4996968;28;45331;-89
2021/07/01 08:22:44;;;;;;;;;19.00;15.00;;;;;20.97;57.23;100710.34;4997087;28;45530;-90
2021/07/01 08:25:11;;;;;;;;;23.00;16.75;;;;;21.12;57.11;100716.09;4997356;28;45121;-91
2021/07/01 08:27:37;;;;;;;;;17.75;16.50;;;;;21.22;56.37;100706.09;4996338;28;46402;-91
2021/07/01 08:30:04;;;;;;;;;17.00;15.50;;;;;21.47;56.46;100719.88;4997094;28;45391;-90
2021/07/01 08:32:31;;;;;;;;;14.50;14.00;;;;;21.61;55.96;100694.22;4995622;28;45242;-91
2021/07/01 08:34:59;;;;;;;;;14.25;14.25;;;;;21.76;55.41;100694.50;4996392;28;45249;-87
2021/07/01 08:37:25;;;;;;;;;17.25;17.25;;;;;21.94;54.42;100708.03;4995049;28;47159;-88
2021/07/01 08:39:53;;;;;;;;;14.75;13.25;;;;;21.93;54.60;100703.63;4996467;28;45189;-89
2021/07/01 08:42:21;;;;;;;;;16.25;16.25;;;;;21.96;54.68;100711.44;4979385;28;45228;-90
2021/07/01 08:44:57;;;;;;;;;18.25;14.25;;;;;21.93;54.09;100712.59;4996761;28;45248;-91
2021/07/01 08:47:29;;;;;;;;;17.25;15.75;;;;;21.64;53.99;100686.63;4996274;28;45609;-89
2021/07/01 08:49:57;;;;;;;;;17.50;16.25;;;;;21.72;53.88;100712.94;4996210;28;45683;-89
2021/07/01 08:52:25;;;;;;;;;18.75;17.00;;;;;21.62;54.95;100698.59;4995403;28;45117;-90
2021/07/01 08:55:02;;;;;;;;;18.75;17.75;;;;;21.63;53.76;100706.56;4996133;28;45216;-89
2021/07/01 08:57:31;;;;;;;;;18.25;17.00;;;;;21.52;54.18;100715.75;4996205;28;45296;-89
2021/07/01 09:00:05;;;;;;;;;20.00;17.50;;;;;21.45;55.19;100702.94;4979972;28;45833;-92
2021/07/01 09:02:35;;;;;;;;;18.00;15.00;;;;;21.49;54.71;100713.31;4997474;28;45237;-93
2021/07/01 09:05:06;;;;;;;;;11.75;11.00;;;;;21.54;53.41;100721.84;4997351;28;45246;-90
2021/07/01 09:07:35;;;;;;;;;15.25;14.25;;;;;21.56;53.61;100710.88;4996808;28;46518;-91
2021/07/01 09:10:04;;;;;;;;;16.50;15.25;;;;;21.51;53.07;100700.53;4996796;28;45588;-92
2021/07/01 09:12:30;;;;;;;;;14.50;14.25;;;;;21.60;53.11;100709.56;4997102;28;45185;-90
2021/07/01 09:15:05;;;;;;;;;17.00;12.50;;;;;21.58;52.72;100700.78;4996187;28;45117;-90
2021/07/01 09:17:33;;;;;;;;;16.25;14.50;;;;;21.65;52.96;100711.84;4995997;28;46150;-90
2021/07/01 09:20:00;;;;;;;;;15.75;15.00;;;;;21.75;52.63;100714.44;4996375;28;45216;-88
2021/07/01 09:22:27;;;;;;;;;16.00;13.50;;;;;21.86;52.81;100700.69;4977720;28;45271;-90
2021/07/01 09:24:53;;;;;;;;;17.00;13.50;;;;;22.08;52.30;100712.06;4997534;28;45418;-77
2021/07/01 09:27:20;;;;;;;;;16.75;15.75;;;;;22.02;52.66;100683.75;4999409;28;45985;-93
2021/07/01 09:29:48;;;;;;;;;15.50;14.25;;;;;22.30;52.70;100706.13;4999064;28;45189;-91
2021/07/01 09:32:16;;;;;;;;;17.25;14.50;;;;;22.33;52.37;100695.03;4999647;28;45268;-91
2021/07/01 09:34:43;;;;;;;;;18.00;17.25;;;;;22.45;51.36;100706.44;4999465;28;45267;-90
2021/07/01 09:37:09;;;;;;;;;15.25;14.00;;;;;22.48;50.96;100708.00;4999687;28;45395;-92
2021/07/01 09:39:36;;;;;;;;;18.50;15.75;;;;;22.49;51.48;100705.13;4999365;28;45387;-92
2021/07/01 09:42:04;;;;;;;;;16.50;13.00;;;;;22.46;51.02;100710.88;4999979;28;45105;-91
2021/07/01 09:44:31;;;;;;;;;15.50;15.00;;;;;22.50;51.24;100709.53;4999419;28;45331;-93
2021/07/01 09:46:58;;;;;;;;;17.50;14.00;;;;;22.54;50.74;100712.78;4999682;28;45243;-92
2021/07/01 09:49:30;;;;;;;;;18.75;14.50;;;;;22.55;50.68;100717.19;4999453;28;45563;-91
2021/07/01 09:51:56;;;;;;;;;14.00;14.00;;;;;22.49;50.91;100697.00;5000264;28;45302;-89
2021/07/01 09:54:23;;;;;;;;;13.00;12.25;;;;;22.51;51.00;100700.38;4982456;28;45158;-90
2021/07/01 09:56:52;;;;;;;;;16.50;14.25;;;;;22.42;51.18;100687.81;4999890;28;46518;-92
2021/07/01 09:59:32;;;;;;;;;15.75;15.75;;;;;22.56;51.13;100708.91;4999484;28;45209;-92
2021/07/01 10:02:14;;;;;;;;;13.00;13.00;;;;;22.57;50.66;100713.31;4998952;28;45279;-89
2021/07/01 10:04:44;;;;;;;;;15.25;14.50;;;;;22.58;50.92;100709.56;4999056;28;45520;-93
2021/07/01 10:07:11;;;;;;;;;16.25;14.75;;;;;22.57;51.22;100715.16;4999646;28;45172;-93
2021/07/01 10:09:36;;;;;;;;;15.50;13.50;;;;;22.53;50.88;100705.63;4999229;28;45204;-92
2021/07/01 10:12:16;;;;;;;;;13.50;13.50;;;;;22.54;50.58;100707.34;4999018;28;45189;-92
2021/07/01 10:14:41;;;;;;;;;14.25;13.75;;;;;22.56;50.44;100713.44;4981768;28;45130;-92
2021/07/01 10:17:12;;;;;;;;;18.00;16.25;;;;;22.61;50.14;100715.69;4999435;28;45530;-92
2021/07/01 10:19:38;;;;;;;;;17.75;16.00;;;;;22.58;50.16;100706.03;4981464;28;45226;-90
2021/07/01 10:22:08;;;;;;;;;15.50;15.00;;;;;22.68;49.99;100709.47;4997778;28;45293;-91
2021/07/01 10:24:55;;;;;;;;;16.00;16.00;;;;;22.74;49.45;100705.25;4999063;28;45256;-91
2021/07/01 10:27:29;;;;;;;;;14.50;13.75;;;;;22.68;49.56;100697.78;4998623;28;45551;-92
2021/07/01 10:29:58;;;;;;;;;17.50;17.50;;;;;22.71;50.09;100711.84;4981489;28;45857;-89
2021/07/01 10:32:44;;;;;;;;;17.00;16.00;;;;;22.68;49.86;100703.22;4999111;28;45109;-90
2021/07/01 10:35:30;;;;;;;;;22.25;18.25;;;;;22.77;49.67;100707.66;4998774;28;45258;-93
2021/07/01 10:38:01;;;;;;;;;16.00;16.00;;;;;22.84;50.01;100714.13;4997545;28;47475;-92
2021/07/01 10:40:27;;;;;;;;;15.75;15.50;;;;;22.89;49.82;100706.38;4998724;28;45200;-91
2021/07/01 10:42:55;;;;;;;;;16.00;15.25;;;;;22.92;49.62;100710.63;4998966;28;45230;-92
2021/07/01 10:45:21;;;;;;;;;18.00;15.00;;;;;22.83;49.81;100698.03;4999074;28;45188;-91
2021/07/01 10:47:47;;;;;;;;;20.50;17.25;;;;;22.98;50.07;100717.25;4999018;28;46036;-90
2021/07/01 10:50:18;;;;;;;;;20.25;18.00;;;;;22.97;49.65;100707.41;4999102;28;45799;-90
2021/07/01 10:52:45;;;;;;;;;17.25;14.25;;;;;22.95;49.74;100715.72;4999311;28;45305;-91
2021/07/01 10:55:12;;;;;;;;;18.00;15.00;;;;;22.93;49.96;100713.16;4999044;28;45359;-90
2021/07/01 10:57:51;;;;;;;;;21.75;18.75;;;;;22.97;49.88;100704.69;4998797;28;46033;-90
2021/07/01 11:00:16;;;;;;;;;15.00;15.00;;;;;23.12;50.06;100710.41;4998633;28;45130;-90
2021/07/01 11:02:47;;;;;;;;;16.50;14.25;;;;;23.23;49.38;100707.38;4997880;28;45133;-87
2021/07/01 11:05:13;;;;;;;;;19.50;17.25;;;;;23.30;49.42;100708.44;4998157;28;45379;-88
2021/07/01 11:07:43;;;;;;;;;17.25;16.25;;;;;23.34;48.90;100709.78;4998620;28;45723;-90
2021/07/01 11:10:10;;;;;;;;;16.00;16.00;;;;;23.28;49.26;100696.88;4999318;28;45092;-93
2021/07/01 11:12:46;;;;;;;;;16.75;15.75;;;;;23.43;48.45;100703.38;4998812;28;45365;-90